Time;durP1;ratioP1;P1;durP2;ratioP2;P2;SDS_P1;SDS_P2;PMS_P1;PMS_P2;Temp;Humidity;BMP_temperature;BMP_pressure;BME280_temperature;BME280_humidity;BME280_pressure;Samples;Min_cycle;Max_cycle;Signal;HPM_P1;HPM_P2
2021/10/12 00:01:53;;;;;;;0.10;0.10;;;;;;;9.97;51.52;98376.98;115475;1215;137085;-83
2021/10/12 00:04:18;;;;;;;0.10;0.10;;;;;;;9.96;51.77;98372.42;115486;1212;22137;-84
2021/10/12 00:06:44;;;;;;;0.10;0.10;;;;;;;9.96;51.90;98371.16;115422;1217;136848;-83
2021/10/12 00:09:10;;;;;;;0.00;0.00;;;;;;;9.94;51.86;98370.80;115376;1218;137268;-83
2021/10/12 00:11:36;;;;;;;0.10;0.10;;;;;;;9.95;51.94;98365.90;115405;1214;137166;-83
2021/10/12 00:14:03;;;;;;;0.10;0.10;;;;;;;9.93;51.93;98366.48;115381;1214;137242;-83
2021/10/12 00:16:32;;;;;;;0.10;0.10;;;;;;;9.92;51.89;98364.36;115561;1218;22294;-83
2021/10/12 00:18:57;;;;;;;0.10;0.10;;;;;;;9.92;52.00;98361.89;115447;1217;137536;-82
2021/10/12 00:21:23;;;;;;;0.10;0.10;;;;;;;9.90;51.93;98360.89;115482;1216;137176;-82
2021/10/12 00:23:49;;;;;;;0.10;0.10;;;;;;;9.88;52.29;98361.48;115470;1217;137136;-82
2021/10/12 00:26:15;;;;;;;0.10;0.10;;;;;;;9.88;52.36;98358.16;115497;1214;137121;-82
2021/10/12 00:28:40;;;;;;;0.10;0.10;;;;;;;9.87;52.47;98353.76;115623;1216;22302;-82
2021/10/12 00:31:06;;;;;;;0.10;0.10;;;;;;;9.87;52.93;98354.04;115501;1216;138009;-82
2021/10/12 00:33:32;;;;;;;0.10;0.10;;;;;;;9.86;52.97;98348.98;115525;1211;137536;-82
2021/10/12 00:35:57;;;;;;;0.10;0.10;;;;;;;9.86;53.17;98346.73;115493;1217;137159;-82
2021/10/12 00:38:23;;;;;;;0.20;0.20;;;;;;;9.85;53.53;98343.16;115472;1217;137939;-83
2021/10/12 00:40:49;;;;;;;0.20;0.20;;;;;;;9.82;53.50;98338.69;115486;1216;137427;-82
2021/10/12 00:43:15;;;;;;;0.10;0.10;;;;;;;9.80;53.56;98335.26;115596;1216;22289;-82
2021/10/12 00:45:41;;;;;;;0.10;0.10;;;;;;;9.79;53.64;98333.88;115415;1217;137145;-82
2021/10/12 00:48:08;;;;;;;0.20;0.20;;;;;;;9.78;53.61;98337.35;115438;1216;137561;-82
2021/10/12 00:50:36;;;;;;;0.00;0.00;;;;;;;9.77;53.84;98333.84;115448;1217;137360;-83
2021/10/12 00:53:03;;;;;;;0.10;0.10;;;;;;;9.76;53.96;98337.63;115421;1217;137311;-83
2021/10/12 00:55:29;;;;;;;0.10;0.10;;;;;;;9.74;54.22;98330.83;115549;1214;22937;-82
2021/10/12 00:57:55;;;;;;;0.10;0.10;;;;;;;9.71;54.42;98328.89;115436;1217;137732;-82
2021/10/12 01:00:22;;;;;;;0.20;0.20;;;;;;;9.70;54.62;98333.02;115423;1214;137137;-83
2021/10/12 01:02:47;;;;;;;0.10;0.10;;;;;;;9.68;54.68;98330.10;115477;1217;137352;-83
2021/10/12 01:05:13;;;;;;;0.20;0.20;;;;;;;9.66;54.71;98329.20;115476;1216;136474;-83
2021/10/12 01:07:38;;;;;;;0.10;0.10;;;;;;;9.64;54.70;98324.55;115531;1217;22175;-82
2021/10/12 01:10:06;;;;;;;0.10;0.10;;;;;;;9.61;54.78;98322.36;115506;1214;137598;-82
2021/10/12 01:12:32;;;;;;;0.10;0.10;;;;;;;9.58;54.49;98313.77;115482;1217;137187;-82
2021/10/12 01:14:58;;;;;;;0.10;0.10;;;;;;;9.56;54.92;98321.71;115428;1216;137328;-82
2021/10/12 01:17:24;;;;;;;0.10;0.10;;;;;;;9.54;54.82;98317.45;115439;1217;137021;-82
2021/10/12 01:19:50;;;;;;;0.00;0.00;;;;;;;9.53;54.93;98313.19;115454;1215;136979;-83
2021/10/12 01:22:16;;;;;;;0.10;0.10;;;;;;;9.53;55.16;98312.17;115579;1215;22285;-83
2021/10/12 01:24:43;;;;;;;0.10;0.10;;;;;;;9.51;55.39;98315.06;115468;1212;137024;-83
2021/10/12 01:27:08;;;;;;;0.10;0.10;;;;;;;9.48;54.91;98306.09;115498;1217;137800;-83
2021/10/12 01:29:34;;;;;;;0.10;0.10;;;;;;;9.48;54.95;98309.44;115511;1217;137093;-83
2021/10/12 01:31:59;;;;;;;0.10;0.10;;;;;;;9.45;55.26;98308.46;115482;1217;137431;-83
2021/10/12 01:34:25;;;;;;;0.10;0.10;;;;;;;9.45;55.50;98304.89;115531;1217;22336;-83
2021/10/12 01:36:50;;;;;;;0.10;0.10;;;;;;;9.44;55.58;98300.17;115477;1216;136884;-84
2021/10/12 01:39:18;;;;;;;0.10;0.10;;;;;;;9.43;55.72;98301.65;115478;1217;137239;-82
2021/10/12 01:41:44;;;;;;;0.10;0.10;;;;;;;9.42;55.97;98310.27;115447;1217;136864;-82
2021/10/12 01:44:15;;;;;;;0.10;0.10;;;;;;;9.40;56.07;98305.95;115458;1216;136956;-82
2021/10/12 01:46:42;;;;;;;0.00;0.00;;;;;;;9.39;56.04;98302.75;115641;1216;22168;-82
2021/10/12 01:49:08;;;;;;;0.10;0.10;;;;;;;9.37;56.26;98295.44;115470;1216;136828;-82
2021/10/12 01:51:34;;;;;;;0.10;0.10;;;;;;;9.36;56.21;98286.98;115455;1217;136865;-82
2021/10/12 01:54:01;;;;;;;0.10;0.10;;;;;;;9.34;56.53;98285.75;115404;1218;137007;-82
2021/10/12 01:56:30;;;;;;;0.10;0.10;;;;;;;9.33;56.44;98282.79;115404;1214;137277;-83
2021/10/12 01:58:56;;;;;;;0.10;0.10;;;;;;;9.31;56.67;98277.18;115518;1217;136969;-83
2021/10/12 02:01:23;;;;;;;0.10;0.10;;;;;;;9.30;56.98;98276.63;115568;1217;22377;-83
2021/10/12 02:03:49;;;;;;;0.00;0.00;;;;;;;9.27;56.94;98274.95;115475;1216;136956;-82
2021/10/12 02:06:14;;;;;;;0.10;0.10;;;;;;;9.25;56.98;98277.30;115441;1217;136754;-82
2021/10/12 02:08:40;;;;;;;0.10;0.10;;;;;;;9.23;57.22;98281.99;115381;1217;137778;-82
2021/10/12 02:11:06;;;;;;;0.10;0.10;;;;;;;9.20;57.06;98285.11;115386;1216;137049;-82
2021/10/12 02:13:32;;;;;;;0.20;0.20;;;;;;;9.17;57.26;98278.78;115589;1215;22140;-82
2021/10/12 02:15:57;;;;;;;0.10;0.10;;;;;;;9.13;57.55;98281.77;115473;1214;136632;-83
2021/10/12 02:18:23;;;;;;;0.10;0.10;;;;;;;9.09;57.50;98283.84;115491;1216;137700;-83
2021/10/12 02:20:49;;;;;;;0.10;0.10;;;;;;;9.05;57.32;98275.55;115472;1217;137505;-83
2021/10/12 02:23:16;;;;;;;0.10;0.10;;;;;;;9.02;57.73;98276.61;115503;1216;138154;-83
2021/10/12 02:25:41;;;;;;;0.10;0.10;;;;;;;8.99;57.74;98280.40;115586;1214;22913;-83
2021/10/12 02:28:07;;;;;;;0.10;0.10;;;;;;;8.96;57.74;98282.34;115432;1216;137022;-82
2021/10/12 02:30:32;;;;;;;0.10;0.10;;;;;;;8.94;58.04;98284.50;115478;1216;137217;-83
2021/10/12 02:32:58;;;;;;;0.10;0.10;;;;;;;8.89;58.07;98286.63;115452;1216;136954;-83
2021/10/12 02:35:23;;;;;;;0.00;0.00;;;;;;;8.85;58.30;98286.58;115476;1216;137685;-83
2021/10/12 02:37:49;;;;;;;0.10;0.10;;;;;;;8.81;58.41;98280.77;115473;1203;137828;-84
2021/10/12 02:40:15;;;;;;;0.10;0.10;;;;;;;8.78;58.38;98287.48;115572;1216;23265;-83
2021/10/12 02:42:41;;;;;;;0.00;0.00;;;;;;;8.75;58.57;98284.81;115466;1216;136717;-83
2021/10/12 02:45:08;;;;;;;0.10;0.10;;;;;;;8.73;58.63;98286.10;115541;1216;136845;-83
2021/10/12 02:47:34;;;;;;;0.10;0.10;;;;;;;8.70;58.82;98286.27;115473;1216;137077;-83
2021/10/12 02:50:04;;;;;;;0.10;0.10;;;;;;;8.69;58.60;98288.15;115532;1216;137250;-83
2021/10/12 02:52:30;;;;;;;0.10;0.10;;;;;;;8.71;58.99;98291.32;115561;1217;23093;-83
2021/10/12 02:54:56;;;;;;;0.10;0.10;;;;;;;8.75;59.14;98288.52;115460;1217;137546;-83
2021/10/12 02:57:22;;;;;;;0.10;0.10;;;;;;;8.79;59.45;98282.05;115403;1217;138734;-83
2021/10/12 02:59:48;;;;;;;0.10;0.10;;;;;;;8.85;59.63;98286.02;115513;1211;137313;-83
2021/10/12 03:02:14;;;;;;;0.10;0.10;;;;;;;8.88;59.44;98292.72;115513;1213;137463;-83
2021/10/12 03:04:40;;;;;;;0.10;0.10;;;;;;;8.91;59.31;98293.99;115552;1217;22339;-83
2021/10/12 03:07:06;;;;;;;0.10;0.10;;;;;;;8.91;59.31;98299.54;115461;1217;137162;-83
2021/10/12 03:09:31;;;;;;;0.10;0.10;;;;;;;8.90;59.25;98292.35;115462;1216;137482;-83
2021/10/12 03:11:57;;;;;;;0.10;0.10;;;;;;;8.87;59.53;98291.56;115490;1214;137794;-83
2021/10/12 03:14:22;;;;;;;0.10;0.10;;;;;;;8.83;59.28;98288.84;115529;1216;137501;-83
2021/10/12 03:16:49;;;;;;;0.10;0.10;;;;;;;8.79;59.51;98284.72;115480;1217;137400;-83
2021/10/12 03:19:16;;;;;;;0.10;0.10;;;;;;;8.74;59.58;98281.76;115569;1216;22391;-83
2021/10/12 03:21:50;;;;;;;0.00;0.00;;;;;;;8.70;59.81;98283.26;115428;1217;137384;-83
2021/10/12 03:24:17;;;;;;;0.10;0.10;;;;;;;8.65;59.83;98280.55;115474;1217;137148;-83
2021/10/12 03:26:43;;;;;;;0.20;0.20;;;;;;;8.60;59.82;98281.83;115475;1217;137350;-83
2021/10/12 03:29:09;;;;;;;0.10;0.10;;;;;;;8.56;59.89;98280.67;115468;1217;138395;-83
2021/10/12 03:31:39;;;;;;;0.10;0.10;;;;;;;8.52;59.85;98287.73;115589;1217;22345;-84
2021/10/12 03:34:26;;;;;;;0.00;0.00;;;;;;;8.46;60.40;98287.68;115516;1216;136748;-84
2021/10/12 03:36:53;;;;;;;0.10;0.10;;;;;;;8.40;60.37;98285.72;115611;1203;22333;-84
2021/10/12 03:39:19;;;;;;;0.10;0.10;;;;;;;8.35;60.15;98284.80;115477;1217;137029;-84
2021/10/12 03:41:44;;;;;;;0.00;0.00;;;;;;;8.30;60.98;98282.21;115476;1217;137147;-84
2021/10/12 03:44:10;;;;;;;0.00;0.00;;;;;;;8.26;61.26;98281.86;115426;1216;137122;-84
2021/10/12 03:46:35;;;;;;;0.10;0.10;;;;;;;8.22;61.41;98286.75;115575;1216;22274;-84
2021/10/12 03:49:00;;;;;;;0.10;0.10;;;;;;;8.19;61.19;98289.70;115482;1217;136678;-84
2021/10/12 03:51:27;;;;;;;0.10;0.10;;;;;;;8.15;61.88;98297.66;115471;1217;137058;-83
2021/10/12 03:53:52;;;;;;;0.00;0.00;;;;;;;8.10;61.81;98293.23;115441;1217;136130;-83
2021/10/12 03:56:18;;;;;;;0.10;0.10;;;;;;;8.08;61.46;98285.05;115385;1217;137349;-83
2021/10/12 03:58:44;;;;;;;0.10;0.10;;;;;;;8.08;61.14;98279.65;115340;1218;137908;-83
2021/10/12 04:01:09;;;;;;;0.10;0.10;;;;;;;8.10;61.57;98276.06;115573;1217;22266;-83
2021/10/12 04:03:35;;;;;;;0.10;0.10;;;;;;;8.16;61.75;98276.03;115482;1216;138088;-83
2021/10/12 04:06:00;;;;;;;0.10;0.10;;;;;;;8.21;61.84;98274.69;115462;1217;137377;-83
2021/10/12 04:08:26;;;;;;;0.10;0.10;;;;;;;8.26;61.94;98274.23;115397;1217;137517;-83
2021/10/12 04:10:53;;;;;;;0.10;0.10;;;;;;;8.31;61.34;98279.98;115520;1217;137510;-83
2021/10/12 04:13:20;;;;;;;0.10;0.10;;;;;;;8.33;61.44;98276.77;115591;1217;22268;-83
2021/10/12 04:15:46;;;;;;;0.10;0.10;;;;;;;8.34;61.17;98273.06;115516;1217;137122;-83
2021/10/12 04:18:11;;;;;;;0.10;0.10;;;;;;;8.35;60.93;98275.49;115412;1217;137210;-83
2021/10/12 04:20:37;;;;;;;0.10;0.10;;;;;;;8.37;60.71;98270.95;115414;1216;137120;-82
2021/10/12 04:23:07;;;;;;;0.00;0.00;;;;;;;8.38;60.40;98275.60;115493;1216;137286;-82
2021/10/12 04:25:32;;;;;;;0.10;0.10;;;;;;;8.39;60.37;98273.49;115591;1217;23099;-82
2021/10/12 04:27:58;;;;;;;0.00;0.00;;;;;;;8.40;60.17;98274.70;115399;1217;137604;-82
2021/10/12 04:30:23;;;;;;;0.10;0.10;;;;;;;8.41;60.23;98274.86;115516;1217;137252;-83
2021/10/12 04:32:49;;;;;;;0.00;0.00;;;;;;;8.41;60.32;98275.33;115413;1217;137614;-83
2021/10/12 04:35:15;;;;;;;0.10;0.10;;;;;;;8.39;59.89;98269.73;115463;1217;137299;-83
2021/10/12 04:37:40;;;;;;;0.10;0.10;;;;;;;8.38;60.10;98262.45;115579;1217;23023;-83
2021/10/12 04:40:06;;;;;;;0.10;0.10;;;;;;;8.36;60.23;98260.42;115403;1217;136805;-83
2021/10/12 04:42:32;;;;;;;0.10;0.10;;;;;;;8.34;60.24;98258.46;115418;1217;137218;-84
2021/10/12 04:44:58;;;;;;;0.00;0.00;;;;;;;8.31;60.47;98255.09;115398;1217;137601;-84
2021/10/12 04:47:24;;;;;;;0.10;0.10;;;;;;;8.28;60.64;98258.15;115464;1217;137622;-84
2021/10/12 04:49:50;;;;;;;0.20;0.20;;;;;;;8.27;60.45;98254.85;115485;1216;137433;-84
2021/10/12 04:52:16;;;;;;;0.10;0.10;;;;;;;8.26;60.67;98252.79;115560;1213;22102;-84
2021/10/12 04:54:42;;;;;;;0.10;0.10;;;;;;;8.24;60.59;98247.83;115482;1217;137260;-83
2021/10/12 04:57:08;;;;;;;0.10;0.10;;;;;;;8.20;60.79;98244.46;115508;1217;137308;-83
2021/10/12 04:59:34;;;;;;;0.10;0.10;;;;;;;8.17;60.81;98244.74;115458;1217;137791;-85
2021/10/12 05:02:00;;;;;;;0.00;0.00;;;;;;;8.11;60.47;98243.55;115469;1217;137883;-84
2021/10/12 05:04:29;;;;;;;0.10;0.10;;;;;;;8.07;60.53;98244.47;115626;1212;22302;-84
2021/10/12 05:06:55;;;;;;;0.10;0.10;;;;;;;8.05;60.52;98243.98;115513;1217;137121;-84
2021/10/12 05:09:21;;;;;;;0.10;0.10;;;;;;;8.02;60.62;98240.11;115514;1212;137321;-84
2021/10/12 05:11:46;;;;;;;0.10;0.10;;;;;;;7.99;60.88;98237.17;115475;1217;137169;-84
2021/10/12 05:14:12;;;;;;;0.10;0.10;;;;;;;7.97;61.02;98237.47;115449;1213;137571;-84
2021/10/12 05:16:37;;;;;;;0.10;0.10;;;;;;;7.96;60.92;98241.73;115574;1217;22301;-84
2021/10/12 05:19:03;;;;;;;0.10;0.10;;;;;;;7.95;60.98;98240.53;115503;1217;136867;-84
2021/10/12 05:21:32;;;;;;;0.10;0.10;;;;;;;7.94;60.81;98244.27;115503;1212;137121;-83
2021/10/12 05:23:59;;;;;;;0.10;0.10;;;;;;;7.95;61.05;98244.59;115532;1216;137823;-83
2021/10/12 05:26:28;;;;;;;0.10;0.10;;;;;;;7.99;61.30;98250.04;115476;1217;138045;-83
2021/10/12 05:28:54;;;;;;;0.00;0.00;;;;;;;8.05;61.57;98248.64;115478;1213;138043;-82
2021/10/12 05:31:22;;;;;;;0.10;0.10;;;;;;;8.10;61.57;98248.02;115554;1217;22833;-83
2021/10/12 05:33:49;;;;;;;0.00;0.00;;;;;;;8.17;61.34;98247.20;115355;1217;136037;-83
2021/10/12 05:36:15;;;;;;;0.10;0.10;;;;;;;8.22;61.11;98247.51;115410;1217;137558;-83
2021/10/12 05:38:40;;;;;;;0.10;0.10;;;;;;;8.26;61.07;98259.10;115450;1217;137164;-83
2021/10/12 05:41:10;;;;;;;0.00;0.00;;;;;;;8.30;60.96;98259.46;115487;1217;137508;-84
2021/10/12 05:43:37;;;;;;;0.10;0.10;;;;;;;8.32;60.64;98260.74;115579;1216;22215;-82
2021/10/12 05:46:04;;;;;;;0.10;0.10;;;;;;;8.33;60.67;98261.49;115426;1216;138681;-83
2021/10/12 05:48:30;;;;;;;0.10;0.10;;;;;;;8.32;60.60;98262.90;115421;1216;137168;-83
2021/10/12 05:50:56;;;;;;;0.10;0.10;;;;;;;8.31;60.62;98265.19;115425;1216;137683;-83
2021/10/12 05:55:56;;;;;;;0.00;0.00;;;;;;;8.31;60.53;98262.07;115364;1217;137204;-82
2021/10/12 05:58:32;;;;;;;0.10;0.10;;;;;;;8.31;60.74;98263.05;115518;1217;22306;-85
2021/10/12 06:00:59;;;;;;;0.00;0.00;;;;;;;8.31;60.77;98266.73;115451;1217;137064;-83
2021/10/12 06:03:27;;;;;;;0.10;0.10;;;;;;;8.32;60.88;98263.27;115450;1212;137508;-82
2021/10/12 06:05:52;;;;;;;0.10;0.10;;;;;;;8.34;60.79;98267.15;115482;1216;137358;-82
2021/10/12 06:08:18;;;;;;;0.00;0.00;;;;;;;8.38;61.00;98268.67;115480;1217;137304;-82
2021/10/12 06:10:44;;;;;;;0.10;0.10;;;;;;;8.42;60.87;98271.19;115457;1216;137250;-83
2021/10/12 06:13:11;;;;;;;0.10;0.10;;;;;;;8.45;60.79;98271.16;115589;1217;22139;-83
2021/10/12 06:15:39;;;;;;;0.10;0.10;;;;;;;8.49;60.96;98266.48;115465;1217;137047;-83
2021/10/12 06:18:06;;;;;;;0.10;0.10;;;;;;;8.54;60.87;98269.98;115488;1217;137197;-83
2021/10/12 06:20:31;;;;;;;0.10;0.10;;;;;;;8.58;60.84;98275.20;115502;1216;137273;-82
2021/10/12 06:22:58;;;;;;;0.10;0.10;;;;;;;8.64;60.62;98273.97;115462;1217;137413;-82
2021/10/12 06:25:24;;;;;;;0.10;0.10;;;;;;;8.69;60.71;98274.63;115611;1217;22997;-82
2021/10/12 06:27:50;;;;;;;0.10;0.10;;;;;;;8.73;60.93;98277.02;115491;1214;138507;-82
2021/10/12 06:30:16;;;;;;;0.10;0.10;;;;;;;8.79;60.74;98271.05;115478;1217;137053;-82
2021/10/12 06:32:43;;;;;;;0.10;0.10;;;;;;;8.85;60.81;98269.38;115474;1217;137177;-82
2021/10/12 06:35:09;;;;;;;0.10;0.10;;;;;;;8.90;60.52;98272.80;115480;1212;137523;-82
2021/10/12 06:37:35;;;;;;;0.20;0.20;;;;;;;8.96;60.26;98274.45;115574;1213;22382;-82
2021/10/12 06:40:01;;;;;;;0.10;0.10;;;;;;;9.02;60.28;98275.19;115475;1217;136643;-84
2021/10/12 06:42:26;;;;;;;0.10;0.10;;;;;;;9.08;60.29;98275.23;115380;1212;137183;-83
2021/10/12 06:45:16;;;;;;;0.10;0.10;;;;;;;9.15;60.25;98275.23;115430;1214;137069;-85
2021/10/12 06:47:55;;;;;;;0.10;0.10;;;;;;;9.24;60.44;98269.50;115483;1209;137456;-85
2021/10/12 06:50:32;;;;;;;0.20;0.20;;;;;;;9.31;60.12;98267.41;115472;1216;137240;-87
2021/10/12 06:53:06;;;;;;;0.10;0.10;;;;;;;9.38;59.92;98266.92;115487;1202;137264;-88
2021/10/12 06:55:32;;;;;;;0.00;0.00;;;;;;;9.44;59.54;98266.36;115622;1217;22455;-85
2021/10/12 06:58:08;;;;;;;0.10;0.10;;;;;;;9.51;59.61;98263.77;115489;1217;136857;-86
2021/10/12 07:00:35;;;;;;;0.10;0.10;;;;;;;9.60;59.43;98267.77;115492;1216;137317;-87
2021/10/12 07:03:00;;;;;;;0.10;0.10;;;;;;;9.68;59.30;98266.30;115493;1217;137011;-84
2021/10/12 07:05:26;;;;;;;0.10;0.10;;;;;;;9.76;58.85;98268.51;115457;1216;137748;-84
2021/10/12 07:07:52;;;;;;;0.10;0.10;;;;;;;9.80;58.63;98269.10;115482;1206;137478;-84
2021/10/12 07:10:17;;;;;;;0.10;0.10;;;;;;;9.88;58.56;98270.48;115658;1216;22931;-83
2021/10/12 07:12:43;;;;;;;0.10;0.10;;;;;;;9.96;58.27;98263.89;115470;1213;137294;-83
2021/10/12 07:15:09;;;;;;;0.10;0.10;;;;;;;10.02;58.17;98266.45;115485;1213;137865;-83
2021/10/12 07:17:35;;;;;;;0.10;0.10;;;;;;;10.12;58.24;98265.38;115541;1217;137360;-85
2021/10/12 07:20:02;;;;;;;0.10;0.10;;;;;;;10.21;57.93;98264.91;115465;1214;137758;-86
2021/10/12 07:22:58;;;;;;;0.10;0.10;;;;;;;10.31;57.82;98264.36;115537;1216;137621;-87
2021/10/12 07:26:04;;;;;;;0.10;0.10;;;;;;;10.41;58.27;98261.30;115614;1217;22112;-87
2021/10/12 07:28:53;;;;;;;0.20;0.20;;;;;;;10.54;57.57;98261.09;115527;1216;137442;-87
2021/10/12 07:31:21;;;;;;;0.10;0.10;;;;;;;10.61;57.41;98271.61;115618;1212;22254;-87
2021/10/12 07:33:47;;;;;;;0.00;0.00;;;;;;;10.71;57.35;98266.92;115444;1217;137459;-87
2021/10/12 07:36:54;;;;;;;0.10;0.10;;;;;;;10.83;56.70;98258.14;115569;1217;137599;-88
2021/10/12 07:40:19;;;;;;;0.10;0.10;;;;;;;10.97;56.45;98256.84;115521;1216;137471;-88
2021/10/12 07:43:41;;;;;;;0.10;0.10;;;;;;;11.12;55.32;98258.48;115553;1216;137235;-89
2021/10/12 07:46:47;;;;;;;0.10;0.10;;;;;;;11.24;55.66;98262.15;115566;1212;137460;-88
2021/10/12 07:49:35;;;;;;;0.10;0.10;;;;;;;11.38;55.75;98261.83;115542;1216;138296;-86
2021/10/12 07:52:06;;;;;;;0.20;0.20;;;;;;;11.48;54.63;98261.83;115608;1217;22174;-86
2021/10/12 07:54:41;;;;;;;0.20;0.20;;;;;;;11.60;54.46;98261.66;115485;1217;138441;-88
2021/10/12 07:58:02;;;;;;;0.20;0.20;;;;;;;11.74;54.36;98259.87;115533;1217;136342;-90
2021/10/12 08:01:09;;;;;;;0.20;0.20;;;;;;;11.88;52.81;98260.90;115506;1216;137413;-88
2021/10/12 08:03:36;;;;;;;0.20;0.20;;;;;;;12.01;52.43;98256.91;115536;1211;137897;-86
2021/10/12 08:06:02;;;;;;;0.10;0.10;;;;;;;12.15;51.97;98258.87;115469;1217;137348;-86
2021/10/12 08:08:29;;;;;;;0.10;0.10;;;;;;;12.27;51.83;98258.90;115517;1213;137667;-86
2021/10/12 08:10:55;;;;;;;0.20;0.20;;;;;;;12.40;51.78;98261.72;115496;1217;138153;-86
2021/10/12 08:13:23;;;;;;;0.10;0.10;;;;;;;12.56;51.65;98265.17;115595;1210;22312;-86
2021/10/12 08:15:53;;;;;;;0.10;0.10;;;;;;;12.69;51.25;98261.74;115500;1213;137405;-85
2021/10/12 08:18:34;;;;;;;0.30;0.30;;;;;;;12.82;50.39;98262.35;115449;1211;137604;-86
2021/10/12 08:21:08;;;;;;;0.20;0.20;;;;;;;12.90;50.30;98259.34;115478;1216;137579;-87
2021/10/12 08:23:42;;;;;;;0.20;0.20;;;;;;;13.02;49.83;98256.00;115489;1211;137614;-88
2021/10/12 08:26:23;;;;;;;0.30;0.30;;;;;;;13.16;49.69;98258.24;115455;1212;138139;-88
2021/10/12 08:29:28;;;;;;;0.20;0.20;;;;;;;13.33;49.60;98257.20;115524;1215;136598;-88
2021/10/12 08:32:50;;;;;;;0.20;0.20;;;;;;;13.50;48.74;98251.02;115519;1217;137531;-87
2021/10/12 08:35:36;;;;;;;;;;;;;;;13.66;48.61;98250.77;115521;1217;137767;-87
2021/10/12 08:38:03;;;;;;;0.20;0.20;;;;;;;13.80;48.74;98248.66;115520;1216;122885;-87
2021/10/12 08:41:09;;;;;;;0.20;0.20;;;;;;;13.91;48.54;98245.51;115537;1216;22256;-87
2021/10/12 08:43:55;;;;;;;0.20;0.20;;;;;;;14.08;48.20;98242.52;115634;1213;22137;-87
2021/10/12 08:46:37;;;;;;;0.10;0.10;;;;;;;14.17;47.98;98240.60;115507;1213;137478;-87
2021/10/12 08:49:42;;;;;;;0.30;0.30;;;;;;;14.31;47.61;98237.83;115494;1213;138132;-89
2021/10/12 08:52:28;;;;;;;0.20;0.20;;;;;;;14.48;47.27;98237.00;115481;1217;137360;-85
2021/10/12 08:54:55;;;;;;;0.30;0.30;;;;;;;14.63;46.99;98233.61;115590;1216;22469;-84
2021/10/12 09:56:51;;;;;;;0.40;0.40;;;;;;;17.85;40.73;98211.77;115539;1216;137582;-85
2021/10/12 09:59:56;;;;;;;0.30;0.30;;;;;;;17.94;40.45;98210.38;115507;1213;137792;-88
2021/10/12 10:02:42;;;;;;;0.30;0.30;;;;;;;17.97;40.21;98211.98;115546;1216;137405;-85
2021/10/12 10:05:20;;;;;;;0.40;0.40;;;;;;;18.08;40.16;98210.38;115481;1216;137439;-87
2021/10/12 10:07:50;;;;;;;0.30;0.30;;;;;;;18.11;39.73;98213.39;115468;1217;137616;-86
2021/10/12 10:10:20;;;;;;;0.30;0.30;;;;;;;18.02;39.89;98209.73;115573;1216;22310;-87
2021/10/12 10:12:46;;;;;;;0.40;0.40;;;;;;;18.02;39.99;98210.67;115470;1216;137709;-86
2021/10/12 10:15:12;;;;;;;0.40;0.40;;;;;;;18.00;39.91;98205.95;115486;1216;137489;-87
2021/10/12 10:17:57;;;;;;;0.30;0.30;;;;;;;18.14;39.98;98200.59;115477;1216;137453;-88
2021/10/12 10:20:38;;;;;;;0.40;0.40;;;;;;;18.29;39.37;98196.33;115472;1216;138785;-87
2021/10/12 10:26:29;;;;;;;0.30;0.30;;;;;;;18.67;38.71;98190.77;115509;1214;137546;-87
2021/10/12 10:29:38;;;;;;;0.30;0.30;;;;;;;18.92;38.79;98189.44;115485;1212;137697;-89
2021/10/12 10:32:24;;;;;;;0.30;0.30;;;;;;;19.05;37.91;98184.88;115470;1213;137804;-88
2021/10/12 10:35:14;;;;;;;0.30;0.30;;;;;;;19.26;37.46;98184.66;115449;1217;137471;-88
2021/10/12 10:37:46;;;;;;;0.40;0.40;;;;;;;19.46;37.05;98177.41;115614;1212;22327;-87
2021/10/12 10:40:27;;;;;;;0.30;0.30;;;;;;;19.52;36.89;98175.37;115647;1216;22126;-87
2021/10/12 10:42:56;;;;;;;0.40;0.40;;;;;;;19.83;36.61;98173.48;115472;1217;137339;-86
2021/10/12 10:45:46;;;;;;;0.30;0.30;;;;;;;20.10;36.87;98166.70;115531;1212;137697;-86
2021/10/12 10:48:35;;;;;;;0.30;0.30;;;;;;;20.42;35.86;98159.61;115482;1217;137352;-87
2021/10/12 10:51:40;;;;;;;0.30;0.30;;;;;;;20.68;35.27;98151.52;115507;1211;137488;-88
2021/10/12 10:55:07;;;;;;;0.30;0.30;;;;;;;20.64;34.42;98149.94;115525;1216;136307;-88
2021/10/12 10:58:11;;;;;;;0.40;0.40;;;;;;;20.65;34.67;98146.26;115379;1214;137543;-88
2021/10/12 11:00:53;;;;;;;0.30;0.30;;;;;;;20.80;34.62;98149.02;115500;1217;137341;-88
2021/10/12 11:03:42;;;;;;;0.40;0.40;;;;;;;20.93;34.02;98146.42;115415;1217;137674;-88
2021/10/12 11:06:20;;;;;;;0.40;0.40;;;;;;;21.03;33.92;98136.77;115502;1213;137675;-88
2021/10/12 11:09:02;;;;;;;0.40;0.40;;;;;;;21.16;33.15;98130.41;115562;1212;136328;-87
2021/10/12 11:11:54;;;;;;;0.20;0.20;;;;;;;21.31;33.05;98127.82;115490;1214;137899;-88
2021/10/12 11:14:44;;;;;;;0.30;0.30;;;;;;;21.62;32.58;98125.65;115525;1216;137448;-88
2021/10/12 11:17:50;;;;;;;0.50;0.50;;;;;;;21.60;32.44;98120.25;115476;1212;137747;-89
2021/10/12 11:20:50;;;;;;;0.40;0.40;;;;;;;21.73;32.56;98113.38;115502;1217;137461;-87
2021/10/12 11:23:42;;;;;;;0.30;0.30;;;;;;;21.90;31.84;98105.95;115450;1216;137662;-88
2021/10/12 11:26:27;;;;;;;0.30;0.30;;;;;;;21.94;31.90;98106.82;115460;1217;137527;-85
2021/10/12 11:28:59;;;;;;;0.50;0.50;;;;;;;21.95;31.24;98110.19;115437;1217;138050;-88
2021/10/12 11:31:44;;;;;;;0.50;0.50;;;;;;;21.94;30.86;98104.23;115503;1214;22815;-88
2021/10/12 11:34:10;;;;;;;0.40;0.40;;;;;;;21.96;31.13;98107.76;115492;1215;136910;-86
2021/10/12 11:36:52;;;;;;;0.40;0.40;;;;;;;21.93;31.28;98099.91;115487;1216;137355;-87
2021/10/12 11:39:40;;;;;;;0.40;0.40;;;;;;;21.86;31.68;98104.92;115470;1214;137382;-88
2021/10/12 11:42:06;;;;;;;0.40;0.40;;;;;;;21.78;31.14;98109.61;115428;1217;137751;-87
2021/10/12 11:44:33;;;;;;;0.40;0.40;;;;;;;21.68;31.33;98109.37;115410;1217;138067;-86
2021/10/12 11:47:03;;;;;;;0.40;0.40;;;;;;;21.59;31.44;98105.29;115510;1217;138097;-86
2021/10/12 11:49:37;;;;;;;0.50;0.50;;;;;;;21.51;31.59;98108.56;115635;1217;22753;-87
2021/10/12 11:52:19;;;;;;;0.50;0.50;;;;;;;21.56;32.03;98107.16;115499;1213;137496;-85
2021/10/12 11:54:44;;;;;;;0.40;0.40;;;;;;;21.79;31.99;98105.08;115496;1213;137694;-86
2021/10/12 11:57:37;;;;;;;0.40;0.40;;;;;;;22.04;32.25;98108.01;115552;1216;137655;-87
2021/10/12 12:00:06;;;;;;;0.50;0.50;;;;;;;22.38;32.02;98107.05;115562;1216;137654;-86
2021/10/12 12:02:32;;;;;;;0.40;0.40;;;;;;;22.51;32.16;98103.81;115438;1217;137707;-85
2021/10/12 12:04:59;;;;;;;0.30;0.30;;;;;;;22.48;32.28;98102.34;115535;1213;137849;-85
2021/10/12 12:07:30;;;;;;;0.30;0.30;;;;;;;22.31;31.64;98111.22;115614;1202;22892;-85
2021/10/12 12:10:14;;;;;;;0.40;0.40;;;;;;;22.11;31.91;98108.63;115504;1213;139261;-87
2021/10/12 12:12:40;;;;;;;0.40;0.40;;;;;;;22.01;32.60;98106.82;115519;1217;137638;-87
2021/10/12 12:15:06;;;;;;;0.50;0.50;;;;;;;21.95;32.77;98110.89;115456;1213;137692;-86
2021/10/12 12:17:39;;;;;;;0.40;0.40;;;;;;;21.88;32.90;98111.05;115502;1217;137535;-86
2021/10/12 12:20:10;;;;;;;0.40;0.40;;;;;;;21.88;33.03;98109.86;115463;1217;137483;-86
2021/10/12 12:22:48;;;;;;;0.50;0.50;;;;;;;21.85;33.00;98102.44;115551;1216;22182;-86
2021/10/12 12:25:20;;;;;;;0.40;0.40;;;;;;;21.76;33.18;98103.75;115469;1213;137251;-86
2021/10/12 12:28:03;;;;;;;0.30;0.30;;;;;;;21.68;33.45;98108.42;115424;1212;137399;-86
2021/10/12 12:31:18;;;;;;;0.40;0.40;;;;;;;21.49;33.60;98107.46;115467;1216;137762;-88
2021/10/12 12:33:45;;;;;;;0.30;0.30;;;;;;;21.17;33.92;98104.77;115566;1217;137382;-86
2021/10/12 12:36:10;;;;;;;0.40;0.40;;;;;;;20.92;34.36;98100.04;115541;1213;137534;-86
2021/10/12 12:38:37;;;;;;;0.50;0.50;;;;;;;20.96;34.68;98091.14;115502;1213;137588;-86
2021/10/12 12:41:35;;;;;;;0.50;0.50;;;;;;;21.18;34.57;98088.89;115575;1212;137678;-87
2021/10/12 12:44:01;;;;;;;0.40;0.40;;;;;;;21.33;34.21;98092.30;115489;1217;137481;-86
2021/10/12 12:46:58;;;;;;;0.40;0.40;;;;;;;21.56;34.02;98083.60;115611;1217;23135;-87
2021/10/12 12:49:24;;;;;;;0.50;0.50;;;;;;;21.77;33.68;98081.73;115625;1217;22928;-87
2021/10/12 12:51:50;;;;;;;0.40;0.40;;;;;;;21.88;33.39;98081.51;115495;1212;137511;-87
2021/10/12 12:54:46;;;;;;;0.40;0.40;;;;;;;22.15;32.74;98084.83;115509;1212;137578;-86